Time;durP1;ratioP1;P1;durP2;ratioP2;P2;SDS_P1;SDS_P2;PMS_P1;PMS_P2;Temp;Humidity;BMP_temperature;BMP_pressure;BME280_temperature;BME280_humidity;BME280_pressure;Samples;Min_cycle;Max_cycle;Signal;HPM_P1;HPM_P2
2022/12/17 13:06:48;;;;;;;48.25;18.90;;;1.10;99.90;;;;;;5041975;28;20055;-71
2022/12/17 13:09:14;;;;;;;39.33;17.35;;;1.10;99.90;;;;;;5033616;28;20072;-71
2022/12/17 13:11:48;;;;;;;48.92;17.48;;;1.20;99.90;;;;;;5047931;28;20047;-71
2022/12/17 13:15:01;;;;;;;40.97;17.58;;;1.20;99.90;;;;;;5053557;28;20047;-70
2022/12/17 13:17:36;;;;;;;37.45;16.73;;;1.20;99.90;;;;;;5028808;28;20052;-70
2022/12/17 13:20:24;;;;;;;42.15;16.42;;;1.20;99.90;;;;;;5037892;28;20047;-71
2022/12/17 13:23:14;;;;;;;36.67;16.13;;;1.20;99.90;;;;;;5039265;28;20090;-71
2022/12/17 13:25:40;;;;;;;42.55;18.27;;;1.30;99.90;;;;;;5046417;28;20127;-71
2022/12/17 13:28:27;;;;;;;40.58;17.27;;;1.20;99.90;;;;;;5067675;28;20041;-70
2022/12/17 13:31:13;;;;;;;41.15;17.60;;;1.30;99.90;;;;;;5049996;28;20459;-71
2022/12/17 13:33:46;;;;;;;41.13;16.77;;;1.30;99.90;;;;;;5050741;28;20048;-71
2022/12/17 13:36:38;;;;;;;46.42;18.80;;;1.30;99.90;;;;;;5044097;28;20123;-70
2022/12/17 13:39:12;;;;;;;41.20;18.15;;;1.30;99.90;;;;;;5039682;28;20051;-71
2022/12/17 13:41:41;;;;;;;44.03;18.30;;;1.30;99.90;;;;;;5067790;28;20037;-71
2022/12/17 13:44:34;;;;;;;41.50;16.52;;;1.30;99.90;;;;;;5048772;28;20144;-71
2022/12/17 13:47:00;;;;;;;44.85;17.92;;;1.30;99.90;;;;;;5069862;28;20060;-71
2022/12/17 13:49:28;;;;;;;49.13;18.87;;;1.30;99.90;;;;;;5068946;28;20044;-71
2022/12/17 13:52:17;;;;;;;49.80;18.48;;;1.20;99.90;;;;;;5061465;28;20406;-71
2022/12/17 13:54:43;;;;;;;45.58;19.92;;;1.20;99.90;;;;;;5049817;28;20300;-71
2022/12/17 13:57:16;;;;;;;46.43;17.87;;;1.20;99.90;;;;;;5054154;28;20094;-71
2022/12/17 13:59:53;;;;;;;49.75;18.90;;;1.20;99.90;;;;;;5033314;28;20116;-71
2022/12/17 14:02:43;;;;;;;43.42;18.02;;;1.10;99.90;;;;;;5069222;28;20047;-71
2022/12/17 14:05:36;;;;;;;45.92;18.65;;;1.10;99.90;;;;;;5046450;28;20068;-71
2022/12/17 14:08:06;;;;;;;47.03;18.35;;;1.10;99.90;;;;;;5054904;28;20044;-71
2022/12/17 14:10:35;;;;;;;46.28;19.35;;;1.10;99.90;;;;;;5052442;28;20044;-71
2022/12/17 14:13:05;;;;;;;48.75;20.17;;;1.00;99.90;;;;;;5055270;28;20056;-71
2022/12/17 14:15:32;;;;;;;47.60;19.17;;;1.00;99.90;;;;;;5032549;28;20496;-70
2022/12/17 14:18:05;;;;;;;42.53;17.42;;;1.00;99.90;;;;;;5050255;28;20041;-71
2022/12/17 14:20:35;;;;;;;48.58;19.65;;;1.00;99.90;;;;;;5066265;28;20432;-70
2022/12/17 14:23:05;;;;;;;49.67;20.25;;;0.90;99.90;;;;;;5049344;28;20171;-71
2022/12/17 14:25:39;;;;;;;49.25;19.23;;;0.90;99.90;;;;;;5034722;28;20223;-71
2022/12/17 14:28:36;;;;;;;48.00;18.95;;;0.80;99.90;;;;;;5058774;28;20402;-71
2022/12/17 14:31:18;;;;;;;44.67;18.08;;;0.80;99.90;;;;;;5046445;28;20052;-71
2022/12/17 14:33:45;;;;;;;50.92;19.85;;;0.80;99.90;;;;;;5047525;28;20040;-71
2022/12/17 14:36:23;;;;;;;52.05;20.48;;;0.70;99.90;;;;;;5047232;28;20044;-71
2022/12/17 14:38:58;;;;;;;52.03;20.30;;;0.70;99.90;;;;;;5046157;28;20048;-71
2022/12/17 14:44:20;;;;;;;48.20;19.15;;;0.60;99.90;;;;;;5044583;28;20588;-70
2022/12/17 14:46:47;;;;;;;50.03;19.98;;;0.60;99.90;;;;;;5045669;28;20047;-70
2022/12/17 14:49:20;;;;;;;52.58;21.92;;;0.50;99.90;;;;;;5049449;28;20044;-69
2022/12/17 14:51:48;;;;;;;50.47;19.88;;;0.40;99.90;;;;;;5046404;28;20067;-69
2022/12/17 14:54:24;;;;;;;54.42;21.02;;;0.40;99.90;;;;;;5047971;28;20037;-68
2022/12/17 14:56:51;;;;;;;51.92;21.73;;;0.40;99.90;;;;;;5029062;28;20052;-68
2022/12/17 14:59:37;;;;;;;55.47;19.25;;;0.30;99.90;;;;;;5043495;28;20052;-68
2022/12/17 15:02:12;;;;;;;54.22;20.23;;;0.30;99.90;;;;;;5061354;28;20043;-68
2022/12/17 15:04:38;;;;;;;61.47;20.60;;;0.20;99.90;;;;;;5045760;28;20119;-68
2022/12/17 15:07:06;;;;;;;53.55;20.50;;;0.20;99.90;;;;;;5049920;28;20071;-68
2022/12/17 15:09:36;;;;;;;54.92;21.65;;;0.10;99.90;;;;;;5067096;28;20045;-68
2022/12/17 15:12:02;;;;;;;57.53;21.45;;;0.10;99.90;;;;;;5042422;28;20078;-69
2022/12/17 15:14:30;;;;;;;54.30;22.23;;;0.10;99.90;;;;;;5032481;28;20044;-68
2022/12/17 15:16:57;;;;;;;54.07;19.93;;;0.00;99.90;;;;;;5048850;28;20041;-68
2022/12/17 15:19:23;;;;;;;58.47;20.65;;;0.00;99.90;;;;;;5047351;28;20433;-68
2022/12/17 15:21:49;;;;;;;56.20;20.17;;;0.00;99.90;;;;;;5041588;28;20041;-67
2022/12/17 15:24:18;;;;;;;54.83;20.67;;;-0.10;99.90;;;;;;5054929;28;20044;-67
2022/12/17 15:26:46;;;;;;;53.42;20.65;;;-0.10;99.90;;;;;;5046299;28;20143;-67
2022/12/17 15:29:12;;;;;;;49.58;20.33;;;-0.10;99.90;;;;;;5057716;28;20043;-66
2022/12/17 15:31:38;;;;;;;49.33;20.52;;;-0.10;99.90;;;;;;5050476;28;20469;-68
2022/12/17 15:34:04;;;;;;;52.57;20.87;;;-0.20;99.90;;;;;;5046586;28;20051;-67
2022/12/17 15:36:31;;;;;;;54.90;18.83;;;-0.20;99.90;;;;;;5045771;28;20052;-67
2022/12/17 15:38:57;;;;;;;59.30;21.02;;;-0.20;99.90;;;;;;5064188;28;21328;-70
2022/12/17 15:44:09;;;;;;;52.33;20.02;;;-0.30;99.90;;;;;;5062169;28;20040;-70
2022/12/17 15:46:35;;;;;;;54.27;20.93;;;-0.30;99.90;;;;;;5059051;28;20123;-70
2022/12/17 15:49:02;;;;;;;51.30;20.03;;;-0.30;99.90;;;;;;5058677;28;20074;-70
2022/12/17 15:51:30;;;;;;;55.85;20.92;;;-0.30;99.90;;;;;;5054277;28;20335;-69
2022/12/17 15:53:56;;;;;;;50.33;19.33;;;-0.40;99.90;;;;;;5046228;28;20041;-68
2022/12/17 15:56:24;;;;;;;58.03;18.83;;;-0.40;99.90;;;;;;5063306;28;20040;-68
2022/12/17 15:58:50;;;;;;;45.40;18.33;;;-0.40;99.90;;;;;;5047901;28;20041;-68
2022/12/17 16:01:19;;;;;;;50.70;19.67;;;-0.40;99.90;;;;;;5061850;28;20032;-68
2022/12/17 16:03:44;;;;;;;50.85;19.33;;;-0.50;99.90;;;;;;5062916;28;20032;-68
2022/12/17 16:06:10;;;;;;;49.80;19.63;;;-0.50;99.90;;;;;;5044764;28;20057;-70
2022/12/17 16:08:37;;;;;;;51.85;19.98;;;-0.50;99.90;;;;;;5046148;28;20483;-71
2022/12/17 16:11:11;;;;;;;54.35;19.20;;;-0.50;99.90;;;;;;5063128;28;20045;-69
2022/12/17 16:13:37;;;;;;;58.63;20.50;;;-0.60;99.90;;;;;;5043287;28;20398;-70
2022/12/17 16:16:04;;;;;;;53.85;20.95;;;-0.60;99.90;;;;;;5061189;28;20542;-70
2022/12/17 16:18:30;;;;;;;;;;;-0.60;99.90;;;;;;5047438;28;20045;-70
2022/12/17 16:21:07;;;;;;;54.47;19.40;;;-0.60;99.90;;;;;;5062360;28;19920;-70
2022/12/17 16:23:36;;;;;;;51.67;20.50;;;-0.60;99.90;;;;;;5045148;28;20041;-67
2022/12/17 16:26:06;;;;;;;52.45;20.27;;;-0.70;99.90;;;;;;5046789;28;20040;-67
2022/12/17 16:28:36;;;;;;;53.88;19.35;;;-0.70;99.90;;;;;;5061364;28;20040;-67
2022/12/17 16:31:07;;;;;;;46.88;18.50;;;-0.70;99.90;;;;;;5058003;28;20051;-70
2022/12/17 16:33:35;;;;;;;46.10;16.73;;;-0.70;99.90;;;;;;5060284;28;20116;-69
2022/12/17 16:36:05;;;;;;;53.28;19.88;;;-0.70;99.90;;;;;;5037793;28;20079;-70
2022/12/17 16:38:40;;;;;;;51.90;19.50;;;-0.80;99.90;;;;;;5043952;28;20115;-69
2022/12/17 16:41:06;;;;;;;50.45;19.30;;;-0.80;99.90;;;;;;5042110;28;20048;-69
2022/12/17 16:43:36;;;;;;;57.20;20.37;;;-0.80;99.90;;;;;;5043955;28;20040;-69
2022/12/17 16:46:05;;;;;;;55.25;20.40;;;-0.80;99.90;;;;;;5043663;28;20041;-69
2022/12/17 16:48:37;;;;;;;52.47;18.95;;;-0.90;99.90;;;;;;5025638;28;20040;-69
2022/12/17 16:51:15;;;;;;;47.10;16.48;;;-0.90;99.90;;;;;;5044385;28;20135;-69
2022/12/17 16:53:44;;;;;;;55.42;20.10;;;-0.90;99.90;;;;;;5060802;28;20277;-69
2022/12/17 16:56:21;;;;;;;56.90;17.63;;;-0.90;99.90;;;;;;5045602;28;20040;-69
2022/12/17 16:58:47;;;;;;;49.83;19.88;;;-0.90;99.90;;;;;;5060974;28;20650;-69
2022/12/17 17:01:32;;;;;;;49.97;18.30;;;-0.90;99.90;;;;;;5047524;28;20032;-69
2022/12/17 17:03:58;;;;;;;54.72;20.63;;;-1.00;99.90;;;;;;5043501;28;20048;-69
2022/12/17 17:06:27;;;;;;;45.17;17.77;;;-1.00;99.90;;;;;;5043233;28;20418;-69
2022/12/17 17:08:53;;;;;;;50.03;19.30;;;-1.00;99.90;;;;;;5055670;22;20052;-67
2022/12/17 17:11:21;;;;;;;;;;;-1.00;99.90;;;;;;5006708;28;20081;-66
2022/12/17 17:13:53;;;;;;;48.88;18.20;;;-1.10;99.90;;;;;;4999420;28;19917;-66
2022/12/17 17:16:22;;;;;;;48.03;17.08;;;-1.10;99.90;;;;;;4999516;28;20454;-67
2022/12/17 17:18:48;;;;;;;53.85;19.42;;;-1.10;99.90;;;;;;4997509;28;20391;-66
2022/12/17 17:21:29;;;;;;;47.28;17.63;;;-1.10;99.90;;;;;;4998183;28;20045;-66
2022/12/17 17:24:00;;;;;;;48.08;17.70;;;-1.10;99.90;;;;;;4996317;28;20049;-67
2022/12/17 17:26:30;;;;;;;53.42;18.65;;;-1.20;99.90;;;;;;4994898;28;20133;-66
2022/12/17 17:28:57;;;;;;;60.47;20.35;;;-1.20;99.90;;;;;;4995483;28;20050;-67
2022/12/17 17:31:23;;;;;;;53.35;18.80;;;-1.20;99.90;;;;;;4989529;28;20049;-66
2022/12/17 17:33:50;;;;;;;50.10;18.38;;;-1.20;99.90;;;;;;4997222;28;20518;-68
2022/12/17 17:36:27;;;;;;;50.80;18.20;;;-1.20;99.90;;;;;;4991483;28;20038;-67
2022/12/17 17:38:57;;;;;;;;;;;-1.20;99.90;;;;;;4992716;28;20119;-68
2022/12/17 17:41:28;;;;;;;44.35;15.90;;;-1.30;99.90;;;;;;4991946;28;19921;-67
2022/12/17 17:43:57;;;;;;;57.80;20.60;;;-1.30;99.90;;;;;;5003009;28;20116;-67
2022/12/17 17:46:23;;;;;;;54.70;19.52;;;-1.30;99.90;;;;;;4987719;28;20381;-66
2022/12/17 17:48:49;;;;;;;61.53;20.92;;;-1.30;99.90;;;;;;5005820;28;20130;-67
2022/12/17 17:51:20;;;;;;;46.60;18.00;;;-1.40;99.90;;;;;;4998489;28;20049;-67
2022/12/17 17:53:49;;;;;;;51.83;18.55;;;-1.40;99.90;;;;;;4997017;28;20045;-67
2022/12/17 17:56:25;;;;;;;53.92;18.02;;;-1.40;99.90;;;;;;4998274;28;20042;-66
2022/12/17 17:59:13;;;;;;;61.75;20.90;;;-1.40;99.90;;;;;;5004305;28;20034;-66
2022/12/17 18:01:47;;;;;;;50.25;17.10;;;-1.40;99.90;;;;;;4989873;28;20053;-66
2022/12/17 18:04:15;;;;;;;55.28;18.27;;;-1.50;99.90;;;;;;4994166;28;20115;-66
2022/12/17 18:06:43;;;;;;;46.97;16.90;;;-1.50;99.90;;;;;;4989702;28;20501;-66
2022/12/17 18:09:12;;;;;;;49.97;17.17;;;-1.50;99.90;;;;;;5002074;28;20568;-66
2022/12/17 18:11:39;;;;;;;59.38;19.90;;;-1.50;99.90;;;;;;4998912;28;20143;-65
2022/12/17 18:14:07;;;;;;;42.35;17.63;;;-1.50;99.90;;;;;;4980531;28;20396;-66
2022/12/17 18:16:42;;;;;;;48.70;18.05;;;-1.50;99.90;;;;;;4995053;28;20038;-66
2022/12/17 18:19:16;;;;;;;48.97;18.17;;;-1.50;99.90;;;;;;4991671;28;20049;-67
2022/12/17 18:21:42;;;;;;;52.92;19.88;;;-1.50;99.90;;;;;;4999437;28;20041;-67
2022/12/17 18:24:21;;;;;;;59.35;19.77;;;-1.50;99.90;;;;;;4993200;28;20116;-66
2022/12/17 18:26:49;;;;;;;48.03;18.08;;;-1.60;99.90;;;;;;5001287;28;20060;-66
2022/12/17 18:29:20;;;;;;;52.67;19.13;;;-1.60;99.90;;;;;;4995691;28;20411;-66
2022/12/17 18:31:47;;;;;;;59.30;20.70;;;-1.60;99.90;;;;;;4997712;28;20194;-66
2022/12/17 18:34:14;;;;;;;50.47;17.95;;;-1.60;99.90;;;;;;4998974;28;20550;-65
2022/12/17 18:36:42;;;;;;;51.45;19.33;;;-1.60;99.90;;;;;;4997817;28;20042;-66
2022/12/17 18:39:15;;;;;;;53.38;17.60;;;-1.60;99.90;;;;;;4998331;28;20111;-68
2022/12/17 18:44:27;;;;;;;49.25;18.73;;;-1.70;99.90;;;;;;5000528;28;20045;-67
2022/12/17 18:46:53;;;;;;;50.63;19.55;;;-1.70;99.90;;;;;;4982633;28;20056;-66
2022/12/17 18:49:21;;;;;;;51.77;17.90;;;-1.70;99.90;;;;;;4978724;28;20037;-67
2022/12/17 18:51:48;;;;;;;56.67;20.25;;;-1.70;99.90;;;;;;4983093;28;20514;-67
2022/12/17 18:54:23;;;;;;;53.05;19.92;;;-1.70;99.90;;;;;;4990628;28;20870;-66
2022/12/17 18:56:49;;;;;;;57.67;19.38;;;-1.70;99.90;;;;;;4993104;28;20811;-65
2022/12/17 18:59:21;;;;;;;55.25;18.98;;;-1.70;99.90;;;;;;5001600;28;20093;-66
2022/12/17 19:01:47;;;;;;;53.13;19.25;;;-1.70;99.90;;;;;;4999753;28;20037;-66
2022/12/17 19:04:16;;;;;;;50.65;18.13;;;-1.80;99.90;;;;;;4992978;28;20197;-65
2022/12/17 19:06:42;;;;;;;54.33;18.30;;;-1.80;99.90;;;;;;4990224;28;20074;-65
2022/12/17 19:09:26;;;;;;;50.95;18.65;;;-1.70;99.90;;;;;;4993276;28;20201;-67
2022/12/17 19:11:53;;;;;;;53.00;17.60;;;-1.80;99.90;;;;;;5004506;28;20049;-66
2022/12/17 19:14:21;;;;;;;52.65;16.48;;;-1.80;99.90;;;;;;4994554;28;20120;-66
2022/12/17 19:16:47;;;;;;;52.13;18.20;;;-1.80;99.90;;;;;;4996812;28;20034;-66
2022/12/17 19:19:13;;;;;;;49.53;17.27;;;-1.80;99.90;;;;;;4998591;28;20046;-66
2022/12/17 19:21:39;;;;;;;48.63;17.53;;;-1.80;99.90;;;;;;5004063;28;20069;-67
2022/12/17 19:24:07;;;;;;;53.70;18.75;;;-1.80;99.90;;;;;;4995919;28;20327;-66
2022/12/17 19:26:33;;;;;;;54.45;18.92;;;-1.90;99.90;;;;;;4993978;28;20389;-67
2022/12/17 19:29:00;;;;;;;52.47;18.08;;;-1.90;99.90;;;;;;4992788;28;20050;-67
2022/12/17 19:31:29;;;;;;;46.33;17.92;;;-1.90;99.90;;;;;;4991132;28;20072;-67
2022/12/17 19:34:00;;;;;;;47.90;17.20;;;-1.90;99.90;;;;;;4997857;28;20096;-67
2022/12/17 19:36:28;;;;;;;50.13;18.00;;;-1.90;99.90;;;;;;4980921;28;20049;-67
2022/12/17 19:38:56;;;;;;;51.65;18.17;;;-1.90;99.90;;;;;;4984037;28;20511;-66
2022/12/17 19:41:23;;;;;;;43.75;15.50;;;-1.90;99.90;;;;;;4987382;28;20046;-65
2022/12/17 19:43:56;;;;;;;54.25;17.85;;;-1.90;99.90;;;;;;4989133;28;20045;-67
2022/12/17 19:46:22;;;;;;;52.90;16.48;;;-1.90;99.90;;;;;;4988625;28;20388;-66
2022/12/17 19:48:51;;;;;;;52.17;18.25;;;-1.90;99.90;;;;;;4994271;28;20228;-66
2022/12/17 19:51:18;;;;;;;53.47;18.05;;;-2.00;99.90;;;;;;4989394;28;20038;-65
2022/12/17 19:53:45;;;;;;;42.88;13.85;;;-2.00;99.90;;;;;;5005107;28;20045;-66
2022/12/17 19:56:21;;;;;;;47.63;17.45;;;-2.00;99.90;;;;;;5002333;28;20080;-65
2022/12/17 19:58:51;;;;;;;49.57;17.30;;;-2.00;99.90;;;;;;4991206;28;20034;-66
2022/12/17 20:01:20;;;;;;;45.20;17.23;;;-2.00;99.90;;;;;;4998036;28;20125;-65
2022/12/17 20:03:47;;;;;;;50.85;16.30;;;-2.10;99.90;;;;;;4998376;28;20041;-65
2022/12/17 20:06:14;;;;;;;50.13;18.15;;;-2.10;99.90;;;;;;4973477;28;20538;-65
2022/12/17 20:08:40;;;;;;;44.20;16.63;;;-2.10;99.90;;;;;;4994899;28;20401;-65
2022/12/17 20:13:56;;;;;;;51.45;18.95;;;-2.10;99.90;;;;;;4998209;28;20134;-66
2022/12/17 20:16:22;;;;;;;62.30;18.13;;;-2.10;99.90;;;;;;4990367;28;20451;-66
2022/12/17 20:18:48;;;;;;;45.27;16.60;;;-2.10;99.90;;;;;;4995574;28;20037;-65
2022/12/17 20:21:13;;;;;;;45.08;16.70;;;-2.10;99.90;;;;;;4995198;28;20048;-66
2022/12/17 20:23:39;;;;;;;48.90;16.17;;;-2.20;99.90;;;;;;5004420;28;20045;-66
2022/12/17 20:26:07;;;;;;;48.43;17.63;;;-2.10;99.90;;;;;;4993940;28;20041;-66
2022/12/17 20:28:33;;;;;;;49.30;17.85;;;-2.10;99.90;;;;;;4993418;28;20046;-66
2022/12/17 20:31:03;;;;;;;44.00;17.92;;;-2.10;99.90;;;;;;4989762;28;20724;-66
2022/12/17 20:33:31;;;;;;;56.05;18.70;;;-2.10;99.90;;;;;;4994726;28;20042;-65
2022/12/17 20:36:12;;;;;;;45.78;13.95;;;-2.10;99.90;;;;;;4991782;28;20049;-66
2022/12/17 20:38:39;;;;;;;44.28;15.55;;;-2.10;99.90;;;;;;4991907;28;20097;-65
2022/12/17 20:41:16;;;;;;;49.42;16.23;;;-2.10;99.90;;;;;;5001537;28;20124;-65
2022/12/17 20:43:45;;;;;;;51.72;18.88;;;-2.10;99.90;;;;;;4992978;28;20183;-65
2022/12/17 20:46:11;;;;;;;39.92;15.77;;;-2.10;99.90;;;;;;4996104;28;20065;-65
2022/12/17 20:48:42;;;;;;;43.90;17.00;;;-2.10;99.90;;;;;;4999214;28;20121;-65
2022/12/17 20:51:22;;;;;;;48.67;16.38;;;-2.10;99.90;;;;;;5003711;28;20492;-66
2022/12/17 20:53:49;;;;;;;44.53;15.18;;;-2.10;99.90;;;;;;4993057;28;20098;-66
2022/12/17 20:56:19;;;;;;;49.10;17.27;;;-2.10;99.90;;;;;;4985292;28;20052;-65
2022/12/17 20:58:45;;;;;;;46.72;17.73;;;-2.10;99.90;;;;;;4999284;28;20045;-66
2022/12/17 21:01:17;;;;;;;44.25;17.83;;;-2.10;99.90;;;;;;4987710;28;20089;-65
2022/12/17 21:03:44;;;;;;;42.45;16.60;;;-2.10;99.90;;;;;;4997511;28;20057;-66
2022/12/17 21:06:16;;;;;;;43.97;17.70;;;-2.10;99.90;;;;;;4996561;28;20057;-66
2022/12/17 21:08:43;;;;;;;51.92;17.60;;;-2.10;99.90;;;;;;4989618;28;20729;-66
2022/12/17 21:11:09;;;;;;;;;;;-2.10;99.90;;;;;;5003355;28;20535;-66
2022/12/17 21:13:35;;;;;;;51.58;17.13;;;-2.10;99.90;;;;;;4997968;28;20000;-65
2022/12/17 21:16:04;;;;;;;41.22;15.63;;;-2.20;99.90;;;;;;4998127;28;20037;-65
2022/12/17 21:18:32;;;;;;;43.20;15.02;;;-2.20;99.90;;;;;;4988739;28;20267;-66
2022/12/17 21:21:01;;;;;;;46.85;17.08;;;-2.10;99.90;;;;;;4995372;28;20068;-66
2022/12/17 21:23:28;;;;;;;47.97;16.23;;;-2.20;99.90;;;;;;4992963;28;20420;-66
2022/12/17 21:26:02;;;;;;;46.00;16.75;;;-2.20;99.90;;;;;;5003792;28;20060;-66
2022/12/17 21:28:28;;;;;;;43.22;16.13;;;-2.20;99.90;;;;;;4991316;28;20084;-66
2022/12/17 21:30:54;;;;;;;44.55;16.60;;;-2.20;99.90;;;;;;4993423;28;20041;-67
2022/12/17 21:33:20;;;;;;;43.80;16.13;;;-2.20;99.90;;;;;;4995262;28;20064;-68
2022/12/17 21:35:46;;;;;;;45.43;14.73;;;-2.20;99.90;;;;;;4996063;28;20057;-67
2022/12/17 21:38:13;;;;;;;53.87;17.87;;;-2.20;99.90;;;;;;4996909;28;20065;-65
2022/12/17 21:40:38;;;;;;;42.25;16.55;;;-2.30;99.90;;;;;;4998842;28;20292;-66
2022/12/17 21:43:04;;;;;;;51.80;18.83;;;-2.20;99.90;;;;;;4993870;28;20793;-67
2022/12/17 21:45:37;;;;;;;42.97;15.80;;;-2.20;99.90;;;;;;4992522;28;20420;-67
2022/12/17 21:48:04;;;;;;;52.80;16.73;;;-2.20;99.90;;;;;;4998398;28;20113;-66
2022/12/17 21:50:30;;;;;;;48.45;17.23;;;-2.30;99.90;;;;;;4997200;28;20049;-67
2022/12/17 21:52:56;;;;;;;47.53;16.77;;;-2.30;99.90;;;;;;5005477;28;20051;-66
2022/12/17 21:55:21;;;;;;;45.67;17.07;;;-2.30;99.90;;;;;;5005606;28;20451;-65
2022/12/17 21:57:47;;;;;;;54.77;18.63;;;-2.30;99.90;;;;;;5004530;28;20030;-67
2022/12/17 22:00:14;;;;;;;46.80;16.73;;;-2.30;99.90;;;;;;4997950;28;20042;-66
2022/12/17 22:02:39;;;;;;;49.60;15.85;;;-2.30;99.90;;;;;;5006421;28;20054;-67
2022/12/17 22:05:05;;;;;;;44.50;17.03;;;-2.30;99.90;;;;;;4989643;28;20287;-66
2022/12/17 22:07:31;;;;;;;51.15;17.10;;;-2.30;99.90;;;;;;4983114;28;20041;-66
2022/12/17 22:09:57;;;;;;;46.90;17.03;;;-2.30;99.90;;;;;;4993843;28;20099;-67
2022/12/17 22:15:08;;;;;;;53.92;19.08;;;-2.30;99.90;;;;;;4995303;28;20044;-66
2022/12/17 22:17:34;;;;;;;48.92;16.95;;;-2.40;99.90;;;;;;4995926;28;20133;-67
2022/12/17 22:19:59;;;;;;;45.03;15.90;;;-2.40;99.90;;;;;;5007832;28;20053;-65
2022/12/17 22:22:25;;;;;;;45.67;17.20;;;-2.30;99.90;;;;;;5003119;28;20531;-66
2022/12/17 22:24:50;;;;;;;47.33;17.60;;;-2.40;99.90;;;;;;5000886;28;20045;-66
2022/12/17 22:27:16;;;;;;;45.67;17.37;;;-2.30;99.90;;;;;;4997397;28;20037;-65
2022/12/17 22:35:10;;;;;;;47.20;17.05;;;-2.30;99.90;;;;;;5003708;28;20062;-66
2022/12/17 22:37:36;;;;;;;45.90;16.47;;;-2.30;99.90;;;;;;4989373;28;20048;-65
2022/12/17 22:40:01;;;;;;;48.67;18.00;;;-2.30;99.90;;;;;;4997636;28;20603;-67
2022/12/17 22:45:11;;;;;;;44.97;16.48;;;-2.30;99.90;;;;;;4993543;28;20038;-66
2022/12/17 22:47:37;;;;;;;47.20;17.10;;;-2.30;99.90;;;;;;5007795;28;20469;-65
2022/12/17 22:50:02;;;;;;;49.10;16.77;;;-2.30;99.90;;;;;;4997767;28;20050;-67
2022/12/17 22:52:28;;;;;;;49.03;17.07;;;-2.30;99.90;;;;;;5003591;28;20355;-65
2022/12/17 22:54:54;;;;;;;54.60;18.57;;;-2.30;99.90;;;;;;4993063;28;20485;-67
2022/12/17 22:57:19;;;;;;;39.77;16.17;;;-2.30;99.90;;;;;;5000561;28;20053;-66
2022/12/17 22:59:45;;;;;;;50.13;17.53;;;-2.30;99.90;;;;;;5001149;28;20128;-65
2022/12/17 23:02:11;;;;;;;43.17;14.93;;;-2.30;99.90;;;;;;4996757;28;20039;-66
2022/12/17 23:04:36;;;;;;;47.13;17.43;;;-2.30;99.90;;;;;;5006394;28;20437;-65
2022/12/17 23:07:02;;;;;;;47.30;16.87;;;-2.30;99.90;;;;;;4990498;28;20133;-67
2022/12/17 23:09:28;;;;;;;47.27;15.63;;;-2.30;99.90;;;;;;5036006;22;20052;-74
2022/12/17 23:11:53;;;;;;;42.83;14.87;;;-2.30;99.90;;;;;;5043275;28;20094;-72
2022/12/17 23:14:19;;;;;;;45.67;15.43;;;-2.30;99.90;;;;;;5039395;28;20053;-70
2022/12/17 23:16:45;;;;;;;40.50;15.10;;;-2.30;99.90;;;;;;5029916;28;20123;-69
2022/12/17 23:19:11;;;;;;;45.97;15.73;;;-2.30;99.90;;;;;;5035030;28;20052;-69
2022/12/17 23:21:37;;;;;;;45.45;15.95;;;-2.30;99.90;;;;;;5049187;28;20506;-69
2022/12/17 23:24:03;;;;;;;49.17;16.20;;;-2.30;99.90;;;;;;5031837;28;20052;-69
2022/12/17 23:26:33;;;;;;;;;;;-2.30;99.90;;;;;;5050360;28;20456;-70
2022/12/17 23:29:03;;;;;;;42.17;15.70;;;-2.30;99.90;;;;;;5046954;28;20369;-69
2022/12/17 23:31:36;;;;;;;41.55;16.05;;;-2.30;99.90;;;;;;5049764;28;20465;-70
2022/12/17 23:34:04;;;;;;;47.15;17.35;;;-2.30;99.90;;;;;;5030965;28;20037;-69
2022/12/17 23:36:30;;;;;;;44.13;16.35;;;-2.40;99.90;;;;;;5028041;28;20043;-69
2022/12/17 23:38:56;;;;;;;46.53;16.60;;;-2.30;99.90;;;;;;5038668;28;20049;-69
2022/12/17 23:41:25;;;;;;;44.23;16.23;;;-2.30;99.90;;;;;;5049143;28;20049;-69
2022/12/17 23:43:51;;;;;;;44.20;15.90;;;-2.40;99.90;;;;;;5049701;28;20266;-70
2022/12/17 23:46:18;;;;;;;51.53;17.70;;;-2.40;99.90;;;;;;5030945;28;20076;-68
2022/12/17 23:48:45;;;;;;;;;;;-2.40;99.90;;;;;;5047993;28;20059;-68
2022/12/17 23:51:12;;;;;;;50.53;15.30;;;-2.40;99.90;;;;;;5048903;28;19928;-69
2022/12/17 23:53:37;;;;;;;49.75;17.77;;;-2.40;99.90;;;;;;5049501;28;20045;-68
2022/12/17 23:56:09;;;;;;;42.97;15.60;;;-2.40;99.90;;;;;;5048825;28;20145;-68
2022/12/17 23:58:36;;;;;;;40.05;15.73;;;-2.40;99.90;;;;;;5048808;28;20116;-68
